Terminal Aerodrome Forecast
Issued by NWS

Home | Current Version | Previous Version | Text Only | Print | Product List | Glossary On
Versions: 1 2 3 4 5 6 7 8 9 10 11 12 13 14
000
FTUS45 KPIH 140500
TAFSUN
TAF
KSUN 140520Z 1406/1506 31011KT P6SM BKN150
     FM141300 31007KT P6SM VCSH SCT120 BKN150
     FM141700 15008KT P6SM VCTS SCT100 BKN150CB
     FM150300 33009KT P6SM SCT150
      AMD LTD TO CLD VIS AND WIND TIL 141300=

USA.gov is the U.S. government's official web portal to all federal, state and local government web resources and services.